createdAt,value
2018-04-06T00:01:07.380Z,30.20
2018-04-06T00:03:34.984Z,27.27
2018-04-06T00:06:02.553Z,34.30
2018-04-06T00:08:30.108Z,21.63
2018-04-06T00:10:57.881Z,26.63
2018-04-06T00:13:25.500Z,18.00
2018-04-06T00:15:53.408Z,18.87
2018-04-06T00:18:21.358Z,19.03
2018-04-06T00:20:48.916Z,25.27
2018-04-06T00:23:16.482Z,21.93
2018-04-06T00:25:44.111Z,24.90
2018-04-06T00:28:11.666Z,41.43
2018-04-06T00:30:39.324Z,21.93
2018-04-06T00:33:06.935Z,30.00
2018-04-06T00:35:34.794Z,26.70
2018-04-06T00:38:02.664Z,26.87
2018-04-06T00:40:30.831Z,28.17
2018-04-06T00:42:58.407Z,28.70
2018-04-06T00:45:25.967Z,25.70
2018-04-06T00:47:53.572Z,17.37
2018-04-06T00:50:21.130Z,22.20
2018-04-06T00:52:48.710Z,30.67
2018-04-06T00:55:16.299Z,22.53
2018-04-06T00:57:43.865Z,30.87
2018-04-06T01:00:11.422Z,21.73
2018-04-06T01:02:39.067Z,35.27
2018-04-06T01:05:06.646Z,21.43
2018-04-06T01:07:34.197Z,23.73
2018-04-06T01:10:01.079Z,32.10
2018-04-06T01:12:28.639Z,24.73
2018-04-06T01:14:56.179Z,30.90
2018-04-06T01:17:23.789Z,27.10
2018-04-06T01:19:51.344Z,35.03
2018-04-06T01:22:18.931Z,28.23
2018-04-06T01:24:46.495Z,29.73
2018-04-06T01:27:14.052Z,27.53
2018-04-06T01:29:41.610Z,30.40
2018-04-06T01:32:10.072Z,25.03
2018-04-06T01:34:37.797Z,26.70
2018-04-06T01:37:05.421Z,24.67
2018-04-06T01:39:33.324Z,23.03
2018-04-06T01:42:01.115Z,22.93
2018-04-06T01:44:28.626Z,31.30
2018-04-06T01:46:56.171Z,32.13
2018-04-06T01:49:23.969Z,23.53
2018-04-06T01:51:51.472Z,23.30
2018-04-06T01:54:19.005Z,27.10
2018-04-06T01:56:46.511Z,34.03
2018-04-06T01:59:14.035Z,21.90
2018-04-06T02:01:41.869Z,29.37
2018-04-06T02:04:09.378Z,28.33
2018-04-06T02:06:36.889Z,22.00
2018-04-06T02:09:04.458Z,19.33
2018-04-06T02:11:32.020Z,21.90
2018-04-06T02:13:59.532Z,22.30
2018-04-06T02:16:27.192Z,28.27
2018-04-06T02:18:55.001Z,27.90
2018-04-06T02:21:22.515Z,23.07
2018-04-06T02:23:50.050Z,20.53
2018-04-06T02:26:17.888Z,26.63
2018-04-06T02:28:45.424Z,33.47
2018-04-06T02:31:12.969Z,36.30
2018-04-06T02:33:40.473Z,26.60
2018-04-06T02:36:08.357Z,32.90
2018-04-06T02:38:35.901Z,29.20
2018-04-06T02:41:03.431Z,17.37
2018-04-06T02:43:31.232Z,23.03
2018-04-06T02:45:58.765Z,29.33
2018-04-06T02:48:26.255Z,36.83
2018-04-06T02:50:54.108Z,19.07
2018-04-06T02:53:21.648Z,23.00
2018-04-06T02:55:49.181Z,18.63
2018-04-06T02:58:16.674Z,22.43
2018-04-06T03:00:44.217Z,35.10
2018-04-06T03:03:11.754Z,31.77
2018-04-06T03:05:39.291Z,35.40
2018-04-06T03:08:06.833Z,21.33
2018-04-06T03:10:34.366Z,24.23
2018-04-06T03:13:01.884Z,20.50
2018-04-06T03:15:29.428Z,31.03
2018-04-06T03:17:56.931Z,34.00
2018-04-06T03:20:24.671Z,27.33
2018-04-06T03:22:52.274Z,21.67
2018-04-06T03:25:19.782Z,33.40
2018-04-06T03:27:47.383Z,29.90
2018-04-06T03:30:14.941Z,31.27
2018-04-06T03:32:42.452Z,28.30
2018-04-06T03:35:10.204Z,29.60
2018-04-06T03:37:37.752Z,33.63
2018-04-06T03:40:05.247Z,23.63
2018-04-06T03:42:32.777Z,26.53
2018-04-06T03:45:00.552Z,27.23
2018-04-06T03:47:28.075Z,33.57
2018-04-06T03:49:55.602Z,22.83
2018-04-06T03:52:23.189Z,29.27
2018-04-06T03:54:51.095Z,30.40
2018-04-06T03:57:18.865Z,42.30
2018-04-06T03:59:46.411Z,24.47
2018-04-06T04:02:13.919Z,26.83
2018-04-06T04:04:41.444Z,36.40
2018-04-06T04:07:08.983Z,28.60
2018-04-06T04:09:36.476Z,17.60
2018-04-06T04:12:03.981Z,26.13
2018-04-06T04:14:31.559Z,40.83
2018-04-06T04:16:59.054Z,24.63
2018-04-06T04:19:26.569Z,18.47
2018-04-06T04:21:54.143Z,29.57
2018-04-06T04:24:21.671Z,27.00
2018-04-06T04:26:49.202Z,21.87
2018-04-06T04:29:16.767Z,33.87
2018-04-06T04:31:44.311Z,24.53
2018-04-06T04:34:11.956Z,30.90
2018-04-06T04:36:39.487Z,33.40
2018-04-06T04:39:07.017Z,27.13
2018-04-06T04:41:34.542Z,19.77
2018-04-06T04:44:02.074Z,28.87
2018-04-06T04:46:29.581Z,22.10
2018-04-06T04:48:57.100Z,25.33
2018-04-06T04:51:24.631Z,25.23
2018-04-06T04:53:52.458Z,18.40
2018-04-06T04:56:19.982Z,24.80
2018-04-06T04:58:47.519Z,25.40
2018-04-06T05:01:15.118Z,23.20
2018-04-06T05:03:42.660Z,42.83
2018-04-06T05:06:10.217Z,41.10
2018-04-06T05:08:37.747Z,21.50
2018-04-06T05:11:05.268Z,24.53
2018-04-06T05:13:32.829Z,35.23
2018-04-06T05:16:00.460Z,22.43
2018-04-06T05:18:27.976Z,31.43
2018-04-06T05:20:55.636Z,31.00
2018-04-06T05:23:23.174Z,32.00
2018-04-06T05:25:50.696Z,24.30
2018-04-06T05:28:18.224Z,27.77
2018-04-06T05:30:45.756Z,30.07
2018-04-06T05:33:13.279Z,28.47
2018-04-06T05:35:40.815Z,28.57
2018-04-06T05:38:08.334Z,26.37
2018-04-06T05:40:35.856Z,22.53
2018-04-06T05:43:03.432Z,25.50
2018-04-06T05:45:30.972Z,26.83
2018-04-06T05:47:58.542Z,35.67
2018-04-06T05:50:26.074Z,32.77
2018-04-06T05:52:53.649Z,32.23
2018-04-06T05:55:21.168Z,25.27
2018-04-06T05:57:48.776Z,32.30
2018-04-06T06:00:17.679Z,25.20
2018-04-06T06:02:45.236Z,27.47
2018-04-06T06:05:12.918Z,29.50
2018-04-06T06:07:40.479Z,26.83
2018-04-06T06:10:07.999Z,19.73
2018-04-06T06:12:35.550Z,32.17
2018-04-06T06:15:03.131Z,34.53
2018-04-06T06:17:30.655Z,33.17
2018-04-06T06:19:57.505Z,32.40
2018-04-06T06:22:25.088Z,35.33
2018-04-06T06:24:52.751Z,24.60
2018-04-06T06:27:20.424Z,21.20
2018-04-06T06:29:48.101Z,25.20
2018-04-06T06:32:15.732Z,38.03
2018-04-06T06:34:43.411Z,31.87
2018-04-06T06:37:11.159Z,26.20
2018-04-06T06:39:38.965Z,34.23
2018-04-06T06:42:06.897Z,31.83
2018-04-06T06:44:34.498Z,31.43
2018-04-06T06:47:02.064Z,31.73
2018-04-06T06:49:29.926Z,28.17
2018-04-06T06:51:57.540Z,29.00
2018-04-06T06:54:25.417Z,35.33
2018-04-06T06:56:53.589Z,23.47
2018-04-06T06:59:21.243Z,35.47
2018-04-06T07:01:48.907Z,39.33
2018-04-06T07:04:16.613Z,29.93
2018-04-06T07:06:44.303Z,24.00
2018-04-06T07:09:11.833Z,26.60
2018-04-06T07:11:39.668Z,35.10
2018-04-06T07:14:07.323Z,23.30
2018-04-06T07:16:34.881Z,22.57
2018-04-06T07:19:02.463Z,38.97
2018-04-06T07:21:30.396Z,35.60
2018-04-06T07:23:58.108Z,28.13
2018-04-06T07:26:25.650Z,31.40
2018-04-06T07:28:53.415Z,31.47
2018-04-06T07:31:20.930Z,25.63
2018-04-06T07:33:48.618Z,32.33
2018-04-06T07:36:16.187Z,19.87
2018-04-06T07:38:43.850Z,19.63
2018-04-06T07:41:11.419Z,28.47
2018-04-06T07:43:38.937Z,24.57
2018-04-06T07:46:06.468Z,25.53
2018-04-06T07:48:34.425Z,25.20
2018-04-06T07:51:01.948Z,23.70
2018-04-06T07:53:29.464Z,23.17
2018-04-06T07:55:57.046Z,20.60
2018-04-06T07:58:24.983Z,32.23
2018-04-06T08:00:52.498Z,24.60
2018-04-06T08:03:20.063Z,23.23
2018-04-06T08:05:47.584Z,25.80
2018-04-06T08:08:15.107Z,21.20
2018-04-06T08:10:42.683Z,22.93
2018-04-06T08:13:10.266Z,18.53
2018-04-06T08:15:37.866Z,27.03
2018-04-06T08:18:05.466Z,26.87
2018-04-06T08:20:34.416Z,32.70
2018-04-06T08:23:02.214Z,17.93
2018-04-06T08:25:30.283Z,19.25
2018-04-06T08:27:58.130Z,16.03
2018-04-06T08:30:25.783Z,22.33
2018-04-06T08:32:53.887Z,16.67
2018-04-06T08:35:22.718Z,18.53
2018-04-06T08:37:51.040Z,20.30
2018-04-06T08:40:18.554Z,18.47
2018-04-06T08:42:46.209Z,25.00
2018-04-06T08:45:14.139Z,15.67
2018-04-06T08:47:42.004Z,14.90
2018-04-06T08:50:09.513Z,16.90
2018-04-06T08:52:37.580Z,23.80
2018-04-06T08:55:05.397Z,23.57
2018-04-06T08:57:32.958Z,22.40
2018-04-06T09:00:00.481Z,16.50
2018-04-06T09:05:01.796Z,13.00
2018-04-06T09:07:29.753Z,20.73
2018-04-06T09:09:58.986Z,14.00
2018-04-06T09:12:26.544Z,24.17
2018-04-06T09:14:54.257Z,23.70
2018-04-06T09:17:23.383Z,14.33
2018-04-06T09:19:51.095Z,14.90
2018-04-06T09:22:18.783Z,22.07
2018-04-06T09:24:46.660Z,15.27
2018-04-06T09:27:14.168Z,17.17
2018-04-06T09:29:42.096Z,17.87
2018-04-06T09:32:09.811Z,23.33
2018-04-06T09:34:38.173Z,25.47
2018-04-06T09:37:05.824Z,14.70
2018-04-06T09:39:33.379Z,15.73
2018-04-06T09:42:00.884Z,16.10
2018-04-06T09:44:29.326Z,13.83
2018-04-06T09:46:56.850Z,16.47
2018-04-06T09:49:24.354Z,15.03
2018-04-06T09:51:52.021Z,17.53
2018-04-06T09:54:19.523Z,13.67
2018-04-06T09:56:47.619Z,16.73
2018-04-06T09:59:15.214Z,12.23
2018-04-06T10:01:42.737Z,12.80
2018-04-06T10:04:10.274Z,23.53
2018-04-06T10:06:37.821Z,10.90
2018-04-06T10:09:06.128Z,16.70
2018-04-06T10:11:33.710Z,13.97
2018-04-06T10:14:01.314Z,8.83
2018-04-06T10:16:29.120Z,13.30
2018-04-06T10:18:56.645Z,14.50
2018-04-06T10:21:24.189Z,13.40
2018-04-06T10:23:51.733Z,13.53
2018-04-06T10:26:19.228Z,11.53
2018-04-06T10:28:46.771Z,14.40
2018-04-06T10:31:14.280Z,14.63
2018-04-06T10:33:41.815Z,15.77
2018-04-06T10:36:09.364Z,14.77
2018-04-06T10:38:36.867Z,17.63
2018-04-06T10:41:04.388Z,12.93
2018-04-06T10:43:31.935Z,14.27
2018-04-06T10:45:59.446Z,12.20
2018-04-06T10:48:26.967Z,15.77
2018-04-06T10:50:54.697Z,13.40
2018-04-06T10:53:22.218Z,18.50
2018-04-06T10:55:50.090Z,17.33
2018-04-06T10:58:17.641Z,17.50
2018-04-06T11:00:45.526Z,13.40
2018-04-06T11:03:13.114Z,14.33
2018-04-06T11:05:40.656Z,11.60
2018-04-06T11:08:08.160Z,10.47
2018-04-06T11:10:36.647Z,16.53
2018-04-06T11:13:04.450Z,14.73
2018-04-06T11:15:31.967Z,11.17
2018-04-06T11:17:59.463Z,15.83
2018-04-06T11:20:27.057Z,12.70
2018-04-06T11:22:54.916Z,13.63
2018-04-06T11:25:22.946Z,14.40
2018-04-06T11:27:51.135Z,13.87
2018-04-06T11:30:18.657Z,16.20
2018-04-06T11:32:46.223Z,14.67
2018-04-06T11:35:14.704Z,11.00
2018-04-06T11:37:42.224Z,19.23
2018-04-06T11:40:09.747Z,14.33
2018-04-06T11:42:37.284Z,13.27
2018-04-06T11:45:04.814Z,12.10
2018-04-06T11:47:32.410Z,14.03
2018-04-06T11:49:59.959Z,12.73
2018-04-06T11:52:27.531Z,14.30
2018-04-06T11:54:55.048Z,13.30
2018-04-06T11:57:22.912Z,10.63
2018-04-06T11:59:50.527Z,12.43
2018-04-06T12:02:18.121Z,14.93
2018-04-06T12:04:45.747Z,14.67
2018-04-06T12:07:13.262Z,18.77
2018-04-06T12:09:40.814Z,20.10
2018-04-06T12:12:08.369Z,15.47
2018-04-06T12:14:35.933Z,15.33
2018-04-06T12:17:03.506Z,16.53
2018-04-06T12:19:31.051Z,13.03
2018-04-06T12:21:58.616Z,12.13
2018-04-06T12:24:26.152Z,17.37
2018-04-06T12:26:53.714Z,12.93
2018-04-06T12:29:21.262Z,11.00
2018-04-06T12:31:48.783Z,14.43
2018-04-06T12:34:16.347Z,24.70
2018-04-06T12:36:43.863Z,24.73
2018-04-06T12:39:11.373Z,11.50
2018-04-06T12:41:39.191Z,11.73
2018-04-06T12:44:06.939Z,14.77
2018-04-06T12:46:34.456Z,11.17
2018-04-06T12:49:02.005Z,9.97
2018-04-06T12:51:29.553Z,11.37
2018-04-06T12:53:57.071Z,14.07
2018-04-06T12:56:24.625Z,10.55
2018-04-06T12:58:52.140Z,15.15
2018-04-06T13:01:19.800Z,11.85
2018-04-06T13:03:47.367Z,11.85
2018-04-06T13:06:14.917Z,12.63
2018-04-06T13:08:42.791Z,17.00
2018-04-06T13:11:10.340Z,12.40
2018-04-06T13:13:37.863Z,11.17
2018-04-06T13:16:05.582Z,13.10
2018-04-06T13:18:33.153Z,11.80
2018-04-06T13:21:01.095Z,13.63
2018-04-06T13:23:28.605Z,13.43
2018-04-06T13:25:56.138Z,14.20
2018-04-06T13:28:23.674Z,11.60
2018-04-06T13:30:51.212Z,12.40
2018-04-06T13:33:18.995Z,12.53
2018-04-06T13:35:46.484Z,10.97
2018-04-06T13:38:14.062Z,12.77
2018-04-06T13:40:41.578Z,16.33
2018-04-06T13:43:09.108Z,12.83
2018-04-06T13:45:36.637Z,13.23
2018-04-06T13:48:04.233Z,10.83
2018-04-06T13:50:31.739Z,13.73
2018-04-06T13:52:59.281Z,11.90
2018-04-06T13:55:26.984Z,13.57
2018-04-06T13:57:54.539Z,10.47
2018-04-06T14:00:22.082Z,13.70
2018-04-06T14:02:49.628Z,14.37
2018-04-06T14:05:17.151Z,13.23
2018-04-06T14:07:44.655Z,12.60
2018-04-06T14:10:12.251Z,12.37
2018-04-06T14:12:39.779Z,10.37
2018-04-06T14:15:07.302Z,16.40
2018-04-06T14:17:34.867Z,16.33
2018-04-06T14:20:02.387Z,13.70
2018-04-06T14:22:31.002Z,17.33
2018-04-06T14:24:58.864Z,13.40
2018-04-06T14:27:26.415Z,18.23
2018-04-06T14:29:54.222Z,13.43
2018-04-06T14:32:21.791Z,19.83
2018-04-06T14:34:49.283Z,12.43
2018-04-06T14:37:16.986Z,9.80
2018-04-06T14:39:44.516Z,11.57
2018-04-06T14:42:12.410Z,11.90
2018-04-06T14:44:39.924Z,12.13
2018-04-06T14:47:07.467Z,13.20
2018-04-06T14:49:35.030Z,11.33
2018-04-06T14:52:03.273Z,11.70
2018-04-06T14:54:30.874Z,13.83
2018-04-06T14:56:58.405Z,12.20
2018-04-06T14:59:25.979Z,13.23
2018-04-06T15:01:54.004Z,10.80
2018-04-06T15:04:21.551Z,14.60
2018-04-06T15:06:49.388Z,12.70
2018-04-06T15:09:16.918Z,15.60
2018-04-06T15:11:44.571Z,14.63
2018-04-06T15:14:12.073Z,14.33
2018-04-06T15:16:39.702Z,14.70
2018-04-06T15:19:07.331Z,13.20
2018-04-06T15:21:34.847Z,10.43
2018-04-06T15:24:02.424Z,15.07
2018-04-06T15:26:29.969Z,15.60
2018-04-06T15:28:57.466Z,12.60
2018-04-06T15:31:24.995Z,15.73
2018-04-06T15:33:52.502Z,16.77
2018-04-06T15:36:20.021Z,12.33
2018-04-06T15:38:47.571Z,19.30
2018-04-06T15:41:15.083Z,13.80
2018-04-06T15:43:42.607Z,9.87
2018-04-06T15:46:10.452Z,12.73
2018-04-06T15:48:38.002Z,9.23
2018-04-06T15:51:05.512Z,11.13
2018-04-06T15:53:33.091Z,12.57
2018-04-06T15:56:00.663Z,10.63
2018-04-06T15:58:28.183Z,13.23
2018-04-06T16:00:55.868Z,11.87
2018-04-06T16:03:23.476Z,16.70
2018-04-06T16:05:51.235Z,19.73
2018-04-06T16:08:18.860Z,14.93
2018-04-06T16:10:46.393Z,13.60
2018-04-06T16:13:13.951Z,12.90
2018-04-06T16:15:41.738Z,12.43
2018-04-06T16:18:09.240Z,14.60
2018-04-06T16:20:36.800Z,18.90
2018-04-06T16:23:04.365Z,12.97
2018-04-06T16:25:32.154Z,11.90
2018-04-06T16:27:59.683Z,14.37
2018-04-06T16:30:27.889Z,12.20
2018-04-06T16:32:55.420Z,15.03
2018-04-06T16:35:22.944Z,14.37
2018-04-06T16:37:50.500Z,10.93
2018-04-06T16:40:17.990Z,10.70
2018-04-06T16:42:45.511Z,17.50
2018-04-06T16:45:13.080Z,13.23
2018-04-06T16:47:40.671Z,11.47
2018-04-06T16:50:09.184Z,16.13
2018-04-06T16:52:36.720Z,12.80
2018-04-06T16:55:04.307Z,12.03
2018-04-06T16:57:31.898Z,14.30
2018-04-06T16:59:59.459Z,14.93
2018-04-06T17:02:27.059Z,17.57
2018-04-06T17:04:54.577Z,12.27
2018-04-06T17:07:22.356Z,13.50
2018-04-06T17:09:51.177Z,11.97
2018-04-06T17:12:20.066Z,11.10
2018-04-06T17:14:48.364Z,16.30
2018-04-06T17:17:15.929Z,19.33
2018-04-06T17:19:43.571Z,12.80
2018-04-06T17:22:11.150Z,14.47
2018-04-06T17:24:38.784Z,14.77
2018-04-06T17:27:06.298Z,18.07
2018-04-06T17:29:33.953Z,15.67
2018-04-06T17:32:01.502Z,13.83
2018-04-06T17:34:29.052Z,14.43
2018-04-06T17:36:56.625Z,19.93
2018-04-06T17:39:24.141Z,13.20
2018-04-06T17:41:51.677Z,12.10
2018-04-06T17:44:19.213Z,21.73
2018-04-06T17:46:46.756Z,19.80
2018-04-06T17:49:14.520Z,18.10
2018-04-06T17:51:42.148Z,19.17
2018-04-06T17:54:09.654Z,20.43
2018-04-06T17:56:37.160Z,16.87
2018-04-06T17:59:04.723Z,13.40
2018-04-06T18:01:32.338Z,15.60
2018-04-06T18:03:59.917Z,22.47
2018-04-06T18:06:27.463Z,19.40
2018-04-06T18:08:55.011Z,22.80
2018-04-06T18:11:22.548Z,18.60
2018-04-06T18:13:50.109Z,20.23
2018-04-06T18:16:17.666Z,14.40
2018-04-06T18:18:45.271Z,13.17
2018-04-06T18:21:12.875Z,21.73
2018-04-06T18:23:41.007Z,13.60
2018-04-06T18:26:08.517Z,13.67
2018-04-06T18:28:36.102Z,15.20
2018-04-06T18:31:04.301Z,15.97
2018-04-06T18:33:31.851Z,14.73
2018-04-06T18:35:59.396Z,15.00
2018-04-06T18:38:27.160Z,17.50
2018-04-06T18:40:54.745Z,21.30
2018-04-06T18:43:22.401Z,16.83
2018-04-06T18:45:49.918Z,25.17
2018-04-06T18:48:17.432Z,18.73
2018-04-06T18:50:45.144Z,21.67
2018-04-06T18:53:12.816Z,22.13
2018-04-06T18:55:40.350Z,50.37
2018-04-06T18:58:08.038Z,21.17
2018-04-06T19:00:35.612Z,20.13
2018-04-06T19:03:03.532Z,18.43
2018-04-06T19:05:31.070Z,14.13
2018-04-06T19:07:58.603Z,17.63
2018-04-06T19:10:26.254Z,16.73
2018-04-06T19:12:54.056Z,17.87
2018-04-06T19:15:21.918Z,21.63
2018-04-06T19:17:49.459Z,18.00
2018-04-06T19:20:16.991Z,16.77
2018-04-06T19:22:44.556Z,27.50
2018-04-06T19:25:12.114Z,23.70
2018-04-06T19:27:39.684Z,16.70
2018-04-06T19:30:07.275Z,18.43
2018-04-06T19:32:34.792Z,19.13
2018-04-06T19:35:02.400Z,16.13
2018-04-06T19:37:29.975Z,22.53
2018-04-06T19:39:57.495Z,22.57
2018-04-06T19:42:25.130Z,22.70
2018-04-06T19:44:52.652Z,20.33
2018-04-06T19:47:20.178Z,19.97
2018-04-06T19:49:47.723Z,30.83
2018-04-06T19:52:15.707Z,32.80
2018-04-06T19:54:43.310Z,23.90
2018-04-06T19:57:10.895Z,23.10
2018-04-06T19:59:39.181Z,23.73
2018-04-06T20:02:06.705Z,40.10
2018-04-06T20:04:34.260Z,24.67
2018-04-06T20:07:02.019Z,20.10
2018-04-06T20:09:30.490Z,16.10
2018-04-06T20:11:58.071Z,21.30
2018-04-06T20:14:25.788Z,22.10
2018-04-06T20:16:53.322Z,29.53
2018-04-06T20:19:20.922Z,27.07
2018-04-06T20:21:48.456Z,22.97
2018-04-06T20:24:15.968Z,19.50
2018-04-06T20:26:43.611Z,18.30
2018-04-06T20:29:11.130Z,17.33
2018-04-06T20:31:38.790Z,22.70
2018-04-06T20:34:06.335Z,16.13
2018-04-06T20:36:34.109Z,18.83
2018-04-06T20:39:01.683Z,17.33
2018-04-06T20:41:29.231Z,21.70
2018-04-06T20:43:56.738Z,16.17
2018-04-06T20:46:24.255Z,23.27
2018-04-06T20:48:51.837Z,27.60
2018-04-06T20:51:19.361Z,27.10
2018-04-06T20:53:47.489Z,19.80
2018-04-06T20:56:15.044Z,25.40
2018-04-06T20:58:42.565Z,18.57
2018-04-06T21:01:10.146Z,24.63
2018-04-06T21:03:37.684Z,24.43
2018-04-06T21:06:05.229Z,21.50
2018-04-06T21:08:32.775Z,33.87
2018-04-06T21:11:00.293Z,33.43
2018-04-06T21:13:27.937Z,15.93
2018-04-06T21:15:55.505Z,18.40
2018-04-06T21:18:23.056Z,26.20
2018-04-06T21:20:50.618Z,24.47
2018-04-06T21:23:18.118Z,25.60
2018-04-06T21:25:45.716Z,21.80
2018-04-06T21:28:13.354Z,25.83
2018-04-06T21:30:41.009Z,24.93
2018-04-06T21:33:08.541Z,29.87
2018-04-06T21:35:36.051Z,24.77
2018-04-06T21:38:03.605Z,19.87
2018-04-06T21:40:31.107Z,16.80
2018-04-06T21:42:58.877Z,24.23
2018-04-06T21:45:26.448Z,20.07
2018-04-06T21:47:54.750Z,18.33
2018-04-06T21:50:22.436Z,17.30
2018-04-06T21:52:50.026Z,22.30
2018-04-06T21:55:18.268Z,19.40
2018-04-06T21:57:45.830Z,21.10
2018-04-06T22:00:13.359Z,20.07
2018-04-06T22:02:40.951Z,23.97
2018-04-06T22:05:08.736Z,18.83
2018-04-06T22:07:36.308Z,23.80
2018-04-06T22:10:04.106Z,16.77
2018-04-06T22:12:31.682Z,48.33
2018-04-06T22:14:59.579Z,20.93
2018-04-06T22:17:27.155Z,16.70
2018-04-06T22:19:54.834Z,13.80
2018-04-06T22:22:22.670Z,38.00
2018-04-06T22:24:50.179Z,16.53
2018-04-06T22:27:17.761Z,19.93
2018-04-06T22:29:45.316Z,24.83
2018-04-06T22:32:12.832Z,26.43
2018-04-06T22:34:40.376Z,22.57
2018-04-06T22:37:07.896Z,17.00
2018-04-06T22:39:35.581Z,27.43
2018-04-06T22:42:03.101Z,17.47
2018-04-06T22:44:30.691Z,14.77
2018-04-06T22:46:58.225Z,15.07
2018-04-06T22:49:25.815Z,20.43
2018-04-06T22:51:53.339Z,19.90
2018-04-06T22:54:20.838Z,23.03
2018-04-06T22:56:48.344Z,20.83
2018-04-06T22:59:15.894Z,14.10
2018-04-06T23:01:43.406Z,22.80
2018-04-06T23:04:11.023Z,17.90
2018-04-06T23:06:38.546Z,20.37
2018-04-06T23:09:06.126Z,20.10
2018-04-06T23:11:33.650Z,19.10
2018-04-06T23:14:01.313Z,17.03
2018-04-06T23:16:28.851Z,14.43
2018-04-06T23:18:56.362Z,31.60
2018-04-06T23:21:24.244Z,19.83
2018-04-06T23:23:51.783Z,13.20
2018-04-06T23:26:19.276Z,18.17
2018-04-06T23:28:46.843Z,23.00
2018-04-06T23:31:14.379Z,17.93
2018-04-06T23:33:41.895Z,19.23
2018-04-06T23:36:09.481Z,21.10
2018-04-06T23:38:36.971Z,17.07
2018-04-06T23:41:04.494Z,17.77
2018-04-06T23:43:32.002Z,15.80
2018-04-06T23:45:59.529Z,16.13
2018-04-06T23:48:27.067Z,23.13
2018-04-06T23:50:55.068Z,14.73
2018-04-06T23:53:22.934Z,16.50
2018-04-06T23:55:50.481Z,25.30
2018-04-06T23:58:18.002Z,17.10
